Sovereign — 9HUE9 — position and weather

sailwx.info

Track history (hours):
 
Tides and Currents Weather Stations Pressure Air Temp Water Temp Dewpoint Dewpoint Depression Visibility Wind Speed Wind Dir Waves Ship Positions

Sovereign

Last reported at 2014-Oct-31 16:31 UTC. Time now 2014-Oct-31 16:39 UTC.
Position N 39°33' E 002°38'.

Length 268 m; draft 7.8 m.

Type: Passenger vessel. MMSI: 249539000.

Date/timePositionNaut miles runAvg speedWind from/ knotsBaromVisibWave heightAir tempDewpointWater temp
2014-Oct-31 16:31N 39°33' E 002°38'0 0.0
2014-Oct-31 15:31N 39°33' E 002°38'0 0.0
2014-Oct-31 14:31N 39°33' E 002°38'0 0.0
2014-Oct-31 13:31N 39°33' E 002°38'0 0.0
2014-Oct-31 12:31N 39°33' E 002°38'0 0.0
2014-Oct-31 11:31N 39°33' E 002°38'0 0.0
2014-Oct-31 10:31N 39°33' E 002°38'7 7.1
2014-Oct-31 09:33N 39°26' E 002°40'1615.9
2014-Oct-31 08:33N 39°12' E 002°47'1313.0
2014-Oct-31 07:33N 39°06' E 003°02'1717.3
2014-Oct-31 06:33N 39°15' E 003°21'1817.3
2014-Oct-31 05:32N 39°25' E 003°40'  
2014-Oct-28 19:14N 39°06' E 009°38'913.8
2014-Oct-28 18:33N 39°03' E 009°26'1616.4
2014-Oct-28 17:33N 39°10' E 009°07'2 2.2
2014-Oct-28 16:32N 39°13' E 009°06'0 0.0
2014-Oct-28 15:32N 39°13' E 009°06'0 0.0
2014-Oct-28 14:32N 39°13' E 009°06'0 0.0
2014-Oct-28 13:32N 39°13' E 009°06'0 0.0
2014-Oct-28 12:32N 39°13' E 009°06'6 5.8
2014-Oct-28 11:33N 39°07' E 009°08'1515.4
2014-Oct-28 10:33N 38°53' E 008°59'3316.6
2014-Oct-28 08:33N 38°42' E 008°19'31016.8
2014-Oct-27 14:06N 37°18' E 001°60'1017.4
2014-Oct-27 13:33N 37°16' E 001°48'1716.9
2014-Oct-27 12:33N 37°11' E 001°28'3316.5
2014-Oct-27 10:33N 37°02' E 000°48'7221.5
2014-Oct-27 07:13N 36°43' W 000°39'710.3
2014-Oct-27 06:33N 36°45' W 000°30'5115.9
2014-Oct-27 03:21N 36°31' W 001°31'1316.4
2014-Oct-27 02:32N 36°28' W 001°47'61 2.3
2014-Oct-25 23:33N 37°16' W 001°01'1716.8
2014-Oct-25 22:33N 37°27' W 000°45'1716.9
2014-Oct-25 21:34N 37°39' W 000°30'1716.5
2014-Oct-25 20:33N 37°53' W 000°19'1716.6
2014-Oct-25 19:33N 38°07' W 000°07'1717.3
2014-Oct-25 18:33N 38°21' E 000°06'1716.9
2014-Oct-25 17:33N 38°35' E 000°17'4615.2
2014-Oct-25 14:29N 39°18' W 000°08'1313.6
2014-Oct-25 13:34N 39°27' W 000°19'0 0.2
2014-Oct-25 12:33N 39°27' W 000°19'0 0.0
2014-Oct-25 11:33N 39°27' W 000°19'0 0.0
2014-Oct-25 10:33N 39°27' W 000°19'0 0.0
2014-Oct-25 09:30N 39°27' W 000°19'0 0.0
2014-Oct-25 08:33N 39°27' W 000°19'0 0.0
2014-Oct-25 07:33N 39°27' W 000°19'0 0.0
2014-Oct-25 06:33N 39°27' W 000°19'0 0.0
2014-Oct-25 05:33N 39°27' W 000°19'0 0.1
2014-Oct-25 04:33N 39°27' W 000°19'7214.2
2014-Oct-24 23:32N 39°25' E 001°13'1914.1
2014-Oct-24 22:12N 39°25' E 001°38'914.2
2014-Oct-24 21:32N 39°25' E 001°50'1915.4
2014-Oct-24 20:16N 39°25' E 002°15'1112.7
2014-Oct-24 19:22N 39°25' E 002°30'1011.5
2014-Oct-24 18:29N 39°33' E 002°39'1 0.1
2014-Oct-24 10:28N 39°33' E 002°38'2913.8
2014-Oct-24 08:24N 39°06' E 002°51'  
2014-Oct-21 17:31N 39°02' E 009°31'1717.4
2014-Oct-21 16:33N 39°09' E 009°11'  
Track history (hours):
 
Tides and Currents Weather Stations Pressure Air Temp Water Temp Dewpoint Dewpoint Depression Visibility Wind Speed Wind Dir Waves Ship Positions

Sovereign

Last reported at 2014-Oct-31 16:31 UTC. Time now 2014-Oct-31 16:39 UTC.
Position N 39°33' E 002°38'.

Length 268 m; draft 7.8 m.

Type: Passenger vessel. MMSI: 249539000.

Date/timePositionNaut miles runAvg speedWind from/ knotsBaromVisibWave heightAir tempDewpointWater temp
2014-Oct-31 16:31N 39°33' E 002°38'0 0.0
2014-Oct-31 15:31N 39°33' E 002°38'0 0.0
2014-Oct-31 14:31N 39°33' E 002°38'0 0.0
2014-Oct-31 13:31N 39°33' E 002°38'0 0.0
2014-Oct-31 12:31N 39°33' E 002°38'0 0.0
2014-Oct-31 11:31N 39°33' E 002°38'0 0.0
2014-Oct-31 10:31N 39°33' E 002°38'7 7.1
2014-Oct-31 09:33N 39°26' E 002°40'1615.9
2014-Oct-31 08:33N 39°12' E 002°47'1313.0
2014-Oct-31 07:33N 39°06' E 003°02'1717.3
2014-Oct-31 06:33N 39°15' E 003°21'1817.3
2014-Oct-31 05:32N 39°25' E 003°40'  
2014-Oct-28 19:14N 39°06' E 009°38'913.8
2014-Oct-28 18:33N 39°03' E 009°26'1616.4
2014-Oct-28 17:33N 39°10' E 009°07'2 2.2
2014-Oct-28 16:32N 39°13' E 009°06'0 0.0
2014-Oct-28 15:32N 39°13' E 009°06'0 0.0
2014-Oct-28 14:32N 39°13' E 009°06'0 0.0
2014-Oct-28 13:32N 39°13' E 009°06'0 0.0
2014-Oct-28 12:32N 39°13' E 009°06'6 5.8
2014-Oct-28 11:33N 39°07' E 009°08'1515.4
2014-Oct-28 10:33N 38°53' E 008°59'3316.6
2014-Oct-28 08:33N 38°42' E 008°19'31016.8
2014-Oct-27 14:06N 37°18' E 001°60'1017.4
2014-Oct-27 13:33N 37°16' E 001°48'1716.9
2014-Oct-27 12:33N 37°11' E 001°28'3316.5
2014-Oct-27 10:33N 37°02' E 000°48'7221.5
2014-Oct-27 07:13N 36°43' W 000°39'710.3
2014-Oct-27 06:33N 36°45' W 000°30'5115.9
2014-Oct-27 03:21N 36°31' W 001°31'1316.4
2014-Oct-27 02:32N 36°28' W 001°47'61 2.3
2014-Oct-25 23:33N 37°16' W 001°01'1716.8
2014-Oct-25 22:33N 37°27' W 000°45'1716.9
2014-Oct-25 21:34N 37°39' W 000°30'1716.5
2014-Oct-25 20:33N 37°53' W 000°19'1716.6
2014-Oct-25 19:33N 38°07' W 000°07'1717.3
2014-Oct-25 18:33N 38°21' E 000°06'1716.9
2014-Oct-25 17:33N 38°35' E 000°17'4615.2
2014-Oct-25 14:29N 39°18' W 000°08'1313.6
2014-Oct-25 13:34N 39°27' W 000°19'0 0.2
2014-Oct-25 12:33N 39°27' W 000°19'0 0.0
2014-Oct-25 11:33N 39°27' W 000°19'0 0.0
2014-Oct-25 10:33N 39°27' W 000°19'0 0.0
2014-Oct-25 09:30N 39°27' W 000°19'0 0.0
2014-Oct-25 08:33N 39°27' W 000°19'0 0.0
2014-Oct-25 07:33N 39°27' W 000°19'0 0.0
2014-Oct-25 06:33N 39°27' W 000°19'0 0.0
2014-Oct-25 05:33N 39°27' W 000°19'0 0.1
2014-Oct-25 04:33N 39°27' W 000°19'7214.2
2014-Oct-24 23:32N 39°25' E 001°13'1914.1
2014-Oct-24 22:12N 39°25' E 001°38'914.2
2014-Oct-24 21:32N 39°25' E 001°50'1915.4
2014-Oct-24 20:16N 39°25' E 002°15'1112.7
2014-Oct-24 19:22N 39°25' E 002°30'1011.5
2014-Oct-24 18:29N 39°33' E 002°39'1 0.1
2014-Oct-24 10:28N 39°33' E 002°38'2913.8
2014-Oct-24 08:24N 39°06' E 002°51'  
2014-Oct-21 17:31N 39°02' E 009°31'1717.4
2014-Oct-21 16:33N 39°09' E 009°11'  

Dump ship's entire track history